»·PEaware :: AAL1733 KSNA-KPHX

AAL1733 :: KSNA-KPHX

FLIGHT INFORMATION

Flight Status: Arrived
Operator:
American Airlines
More flights by this operator :: More flights under this callsign
Pilot: Drew L. (13237)
Aircraft: AIRBUS A321
(A321)
More flights by this aircraft type
Origin: KSNA John Wayne-Orange Co
United States
Destination: KPHX Phoenix Sky Harbor Intl
United States
More flights between these airports :: More routes between these airports
Route: +PIGGN2 CNERY BLH HYDRR1
File this flight plan on PilotEdge
Remarks: RMK / SIMBRIEF
Altitude:
(Current/Filed)
31,000ft
Speed:
(Current/Filed)
442kts
Departed: 13-Oct-20 09:22 AM
Arrived: 13-Oct-20 10:13 AM
Distance/Time
Traveled:
294nm/0:51
Distance/Time
To Go:
Arrived

Flight Plot

Page will automatically refresh every two minutes.

Flight plan parsing failed; only flown route is shown


Map Options




Map Legend


Flown Route
Filed Route
Departure Airport
Arrival Airport
Navaid (VOR, NDB)
Fix

Horizontal Profiles

Position Reports

Time Latitude Longitude Heading Altitude Ground
Speed
13-Oct-20 08:47 33.678702 -117.862779 100 65ft 0kts
13-Oct-20 08:48 33.678702 -117.862779 100 65ft 0kts
13-Oct-20 08:49 33.678702 -117.862779 100 65ft 0kts
13-Oct-20 08:50 33.678702 -117.862779 100 65ft 0kts
13-Oct-20 08:51 33.678702 -117.862779 100 65ft 0kts
13-Oct-20 08:52 33.678702 -117.862779 100 65ft 0kts
13-Oct-20 08:53 33.678702 -117.862779 100 65ft 0kts
13-Oct-20 08:54 33.678702 -117.862779 100 65ft 0kts
13-Oct-20 08:55 33.678702 -117.862779 100 65ft 0kts
13-Oct-20 08:56 33.678702 -117.862779 100 65ft 0kts
13-Oct-20 08:57 33.678702 -117.862779 100 65ft 0kts
13-Oct-20 08:58 33.678702 -117.862779 100 65ft 0kts
13-Oct-20 08:59 33.678702 -117.862779 100 65ft 0kts
13-Oct-20 09:00 33.678702 -117.862779 100 65ft 0kts
13-Oct-20 09:01 33.678702 -117.862779 100 65ft 0kts
13-Oct-20 09:02 33.678702 -117.862779 100 65ft 0kts
13-Oct-20 09:03 33.678702 -117.862779 100 65ft 0kts
13-Oct-20 09:04 33.678702 -117.862779 100 65ft 0kts
13-Oct-20 09:05 33.678702 -117.862779 100 65ft 0kts
13-Oct-20 09:06 33.678702 -117.862779 100 65ft 0kts
13-Oct-20 09:07 33.678702 -117.862779 100 65ft 0kts
13-Oct-20 09:08 33.678702 -117.862779 100 65ft 0kts
13-Oct-20 09:09 33.678702 -117.862779 100 65ft 0kts
13-Oct-20 09:10 33.678702 -117.862779 100 65ft 0kts
13-Oct-20 09:11 33.678702 -117.862779 100 65ft 0kts
13-Oct-20 09:12 33.678702 -117.862779 100 65ft 0kts
13-Oct-20 09:13 33.678702 -117.862780 100 65ft 0kts
13-Oct-20 09:14 33.678725 -117.862874 96 65ft 2kts
13-Oct-20 09:15 33.678725 -117.863506 48 65ft 1kts
13-Oct-20 09:16 33.678590 -117.863618 26 65ft 0kts
13-Oct-20 09:17 33.678590 -117.863618 26 65ft 0kts
13-Oct-20 09:18 33.678590 -117.863618 26 65ft 0kts
13-Oct-20 09:19 33.680307 -117.862692 349 65ft 10kts
13-Oct-20 09:20 33.681148 -117.865358 207 65ft 22kts
13-Oct-20 09:21 33.645770 -117.887579 206 1821ft 186kts
13-Oct-20 09:22 33.587897 -117.896940 186 3191ft 246kts
13-Oct-20 09:23 33.519657 -117.866926 147 5755ft 276kts
13-Oct-20 09:24 33.479993 -117.788181 108 8529ft 289kts
13-Oct-20 09:25 33.484960 -117.691131 67 10708ft 316kts
13-Oct-20 09:26 33.532441 -117.589846 59 11833ft 378kts
13-Oct-20 09:27 33.575852 -117.470583 92 13986ft 403kts
13-Oct-20 09:29 33.539049 -117.342050 112 16198ft 418kts
13-Oct-20 09:30 33.504478 -117.205691 96 18259ft 435kts
13-Oct-20 09:31 33.501020 -117.058834 90 20142ft 449kts
13-Oct-20 09:32 33.498000 -116.906928 90 21896ft 462kts
13-Oct-20 09:33 33.496163 -116.750970 89 23453ft 474kts
13-Oct-20 09:34 33.494268 -116.592000 89 24887ft 484kts
13-Oct-20 09:35 33.492051 -116.429882 88 26518ft 484kts
13-Oct-20 09:36 33.489768 -116.269807 88 28064ft 481kts
13-Oct-20 09:37 33.487283 -116.109716 87 29428ft 478kts
13-Oct-20 09:38 33.508321 -115.955153 67 30615ft 466kts
13-Oct-20 09:39 33.551498 -115.809430 66 31048ft 465kts
13-Oct-20 09:40 33.594258 -115.662786 66 31050ft 465kts
13-Oct-20 09:41 33.633090 -115.514558 74 31050ft 470kts
13-Oct-20 09:42 33.639195 -115.357577 93 31052ft 478kts
13-Oct-20 09:43 33.612309 -115.201218 96 31073ft 478kts
13-Oct-20 09:43 33.604782 -115.070036 88 31091ft 470kts
13-Oct-20 09:45 33.599683 -114.888113 88 31094ft 465kts
13-Oct-20 09:45 33.593104 -114.759284 94 31094ft 468kts
13-Oct-20 09:47 33.560960 -114.580950 100 31094ft 469kts
13-Oct-20 09:47 33.536056 -114.454089 100 30298ft 469kts
13-Oct-20 09:48 33.506511 -114.303705 100 27364ft 455kts
13-Oct-20 09:50 33.472629 -114.132105 101 25277ft 458kts
13-Oct-20 09:50 33.449264 -114.015458 100 25082ft 413kts
13-Oct-20 09:51 33.422442 -113.881675 100 25071ft 414kts
13-Oct-20 09:52 33.395368 -113.747170 100 24536ft 417kts
13-Oct-20 09:53 33.368664 -113.615441 101 22814ft 399kts
13-Oct-20 09:54 33.343034 -113.489706 101 21170ft 382kts
13-Oct-20 09:55 33.321096 -113.367932 99 19546ft 368kts
13-Oct-20 09:56 33.300688 -113.249769 100 17905ft 357kts
13-Oct-20 09:57 33.283538 -113.134454 98 16276ft 347kts
13-Oct-20 09:58 33.275129 -113.024070 87 15034ft 328kts
13-Oct-20 09:59 33.278058 -112.915864 87 13344ft 323kts
13-Oct-20 10:00 33.284617 -112.811498 72 12260ft 300kts
13-Oct-20 10:01 33.317821 -112.721258 65 10885ft 290kts
13-Oct-20 10:02 33.349861 -112.636944 64 10020ft 274kts
13-Oct-20 10:03 33.381154 -112.554948 64 8746ft 267kts
13-Oct-20 10:04 33.410787 -112.475540 66 7839ft 258kts
13-Oct-20 10:05 33.434333 -112.395224 71 6635ft 252kts
13-Oct-20 10:06 33.440862 -112.312427 88 5453ft 245kts
13-Oct-20 10:07 33.441028 -112.231785 90 4264ft 238kts
13-Oct-20 10:08 33.440887 -112.156383 91 3257ft 202kts
13-Oct-20 10:09 33.440821 -112.098778 91 2303ft 150kts
13-Oct-20 10:10 33.440899 -112.048084 90 1474ft 149kts
13-Oct-20 10:11 33.440829 -112.007446 89 1131ft 49kts
13-Oct-20 10:12 33.439017 -112.001600 90 1131ft 16kts
13-Oct-20 10:13 33.439017 -111.996327 89 1136ft 11kts
13-Oct-20 10:14 33.437945 -111.993008 180 1133ft 12kts
13-Oct-20 10:15 33.437454 -111.993761 269 1133ft 0kts

Navigation Log

Ident Type
Flight plan parsing failed, navigation log unavailable